Lenawee County Airport


Codes: KADG/ADG
Name: Lenawee County Airport
City: Adrian
Country: United States
Elevation: 798 ft.
Wikipedia:

Photos at Lenawee County Airport


   Photos courtesy of SpottingLog. You can add your own sightings and photos by signing up for a free trial today.



No photos found.

Weather at Lenawee County Airport


Time (UTC)DescriptionTempratureWindCloud coverageVisibilityPressureHumidity
16-Jun-2024 03:00Scattered Clouds21°C7 mph, 33%10000m1021hPa55%
16-Jun-2024 06:00Broken Clouds17°C7 mph, E67%10000m1020hPa66%
16-Jun-2024 09:00Overcast Clouds13°C7 mph, SE100%10000m1020hPa80%
16-Jun-2024 12:00Overcast Clouds15°C7 mph, SE96%10000m1020hPa74%
16-Jun-2024 15:00Overcast Clouds21°C9 mph, S99%10000m1019hPa63%
16-Jun-2024 18:00Overcast Clouds26°C11 mph, S100%10000m1017hPa50%
16-Jun-2024 21:00Broken Clouds28°C11 mph, S61%10000m1015hPa51%
17-Jun-2024 00:00Light Rain24°C7 mph, S42%10000m1014hPa71%
17-Jun-2024 03:00Clear Sky21°C9 mph, S0%10000m1015hPa78%
17-Jun-2024 06:00Clear Sky20°C9 mph, SW7%10000m1015hPa84%
17-Jun-2024 09:00Light Rain20°C7 mph, SW7%10000m1015hPa94%
17-Jun-2024 12:00Light Rain23°C9 mph, SW8%10000m1016hPa90%
17-Jun-2024 15:00Scattered Clouds28°C13 mph, SW46%10000m1016hPa69%
17-Jun-2024 18:00Broken Clouds31°C13 mph, SW67%10000m1016hPa58%
17-Jun-2024 21:00Scattered Clouds32°C11 mph, SW28%10000m1016hPa56%
18-Jun-2024 00:00Light Rain28°C4 mph, SW14%10000m1016hPa73%
18-Jun-2024 03:00Few Clouds23°C9 mph, SW20%10000m1018hPa85%
18-Jun-2024 06:00Light Rain22°C7 mph, SW62%10000m1018hPa86%
18-Jun-2024 09:00Broken Clouds20°C7 mph, SW68%10000m1018hPa85%
18-Jun-2024 12:00Overcast Clouds22°C7 mph, SW85%10000m1019hPa86%
18-Jun-2024 15:00Overcast Clouds27°C11 mph, SW99%10000m1019hPa71%
18-Jun-2024 18:00Overcast Clouds30°C13 mph, SW99%10000m1019hPa59%
18-Jun-2024 21:00Overcast Clouds30°C9 mph, SW100%10000m1018hPa62%
19-Jun-2024 00:00Light Rain27°C7 mph, S100%10000m1019hPa79%
19-Jun-2024 03:00Overcast Clouds24°C7 mph, SW100%10000m1020hPa89%
19-Jun-2024 06:00Light Rain23°C4 mph, SW100%10000m1020hPa92%
19-Jun-2024 09:00Overcast Clouds23°C7 mph, SW100%10000m1021hPa92%
19-Jun-2024 12:00Light Rain24°C7 mph, SW100%10000m1023hPa87%
19-Jun-2024 15:00Overcast Clouds28°C7 mph, SW94%10000m1023hPa62%
19-Jun-2024 18:00Overcast Clouds31°C7 mph, SW96%10000m1023hPa55%
19-Jun-2024 21:00Broken Clouds31°C9 mph, SW80%10000m1022hPa54%
20-Jun-2024 00:00Light Rain28°C7 mph, SW74%9818m1022hPa74%
20-Jun-2024 03:00Light Rain23°C2 mph, NW99%10000m1024hPa79%
20-Jun-2024 06:00Overcast Clouds23°C2 mph, N100%10000m1024hPa79%
20-Jun-2024 09:00Light Rain22°C2 mph, NE66%10000m1025hPa84%
20-Jun-2024 12:00Broken Clouds24°C2 mph, N51%10000m1025hPa79%
20-Jun-2024 15:00Few Clouds29°C2 mph, NE16%10000m1026hPa61%
20-Jun-2024 18:00Few Clouds31°C0 mph, SE24%10000m1025hPa52%
20-Jun-2024 21:00Broken Clouds32°C0 mph, SE59%10000m1024hPa51%
21-Jun-2024 00:00Light Rain26°C2 mph, E83%10000m1024hPa77%